createdAt,value
2022-10-23T00:02:26.047Z,96978.99
2022-10-23T00:04:52.704Z,96989.33
2022-10-23T00:07:19.458Z,96985.67
2022-10-23T00:09:46.379Z,96983.09
2022-10-23T00:12:12.869Z,96984.73
2022-10-23T00:14:41.512Z,96986.55
2022-10-23T00:17:10.045Z,96979.81
2022-10-23T00:19:36.568Z,96980.80
2022-10-23T00:22:03.153Z,96979.86
2022-10-23T00:24:29.792Z,96985.63
2022-10-23T00:26:56.373Z,96990.46
2022-10-23T00:29:23.606Z,96993.92
2022-10-23T00:31:50.095Z,96994.27
2022-10-23T00:34:18.931Z,96993.63
2022-10-23T00:36:45.871Z,97002.57
2022-10-23T00:39:15.085Z,97006.00
2022-10-23T00:41:42.390Z,97008.89
2022-10-23T00:44:10.740Z,97012.08
2022-10-23T00:46:38.529Z,97014.94
2022-10-23T00:49:06.671Z,97019.59
2022-10-23T00:51:38.025Z,97018.36
2022-10-23T00:54:23.857Z,97014.52
2022-10-23T00:56:54.807Z,97023.94
2022-10-23T00:59:26.103Z,97027.00
2022-10-23T01:01:54.370Z,97031.31
2022-10-23T01:04:21.965Z,97039.35
2022-10-23T01:06:48.623Z,97037.20
2022-10-23T01:09:20.849Z,97042.45
2022-10-23T01:11:55.616Z,97049.59
2022-10-23T01:14:22.172Z,97057.77
2022-10-23T01:16:51.693Z,97065.41
2022-10-23T01:19:27.665Z,97064.69
2022-10-23T01:21:58.746Z,97068.03
2022-10-23T01:24:28.695Z,97070.66
2022-10-23T01:26:55.226Z,97073.48
2022-10-23T01:29:45.218Z,97073.10
2022-10-23T01:32:19.450Z,97073.34
2022-10-23T01:34:51.276Z,97073.65
2022-10-23T01:37:22.853Z,97077.61
2022-10-23T01:39:52.326Z,97083.66
2022-10-23T01:42:21.797Z,97086.70
2022-10-23T01:44:51.115Z,97081.03
2022-10-23T01:49:58.204Z,97080.81
2022-10-23T01:52:24.918Z,97088.27
2022-10-23T01:54:54.698Z,97094.09
2022-10-23T01:57:22.409Z,97093.30
2022-10-23T01:59:53.049Z,97093.42
2022-10-23T02:02:22.203Z,97099.77
2022-10-23T02:05:07.262Z,97104.41
2022-10-23T02:07:35.045Z,97106.06
2022-10-23T02:10:03.294Z,97105.75
2022-10-23T02:12:36.903Z,97109.96
2022-10-23T02:15:03.518Z,97121.27
2022-10-23T02:17:39.456Z,97111.56
2022-10-23T02:20:19.562Z,97112.80
2022-10-23T02:22:55.011Z,97110.64
2022-10-23T02:25:27.924Z,97123.68
2022-10-23T02:27:58.053Z,97128.67
2022-10-23T02:30:29.481Z,97126.40
2022-10-23T02:33:07.340Z,97131.98
2022-10-23T02:35:35.574Z,97137.61
2022-10-23T02:38:28.072Z,97139.48
2022-10-23T02:40:57.592Z,97142.84
2022-10-23T02:43:25.968Z,97157.59
2022-10-23T02:45:52.717Z,97163.13
2022-10-23T02:48:25.229Z,97159.08
2022-10-23T02:50:55.039Z,97160.69
2022-10-23T02:53:28.030Z,97164.70
2022-10-23T02:55:54.693Z,97175.84
2022-10-23T02:58:41.545Z,97175.42
2022-10-23T03:01:14.387Z,97180.44
2022-10-23T03:03:43.979Z,97179.60
2022-10-23T03:06:10.662Z,97182.02
2022-10-23T03:08:44.643Z,97178.99
2022-10-23T03:11:23.909Z,97184.72
2022-10-23T03:13:50.682Z,97190.95
2022-10-23T03:16:17.527Z,97186.16
2022-10-23T03:18:49.786Z,97195.06
2022-10-23T03:21:17.418Z,97194.55
2022-10-23T03:23:44.007Z,97202.04
2022-10-23T03:26:14.275Z,97199.44
2022-10-23T03:28:42.649Z,97194.23
2022-10-23T03:31:09.520Z,97197.44
2022-10-23T03:33:38.240Z,97202.59
2022-10-23T03:36:11.131Z,97205.61
2022-10-23T03:38:38.466Z,97209.25
2022-10-23T03:41:05.319Z,97214.41
2022-10-23T03:43:32.023Z,97221.85
2022-10-23T03:45:58.713Z,97225.58
2022-10-23T03:48:25.817Z,97229.04
2022-10-23T03:50:57.357Z,97227.08
2022-10-23T03:53:23.863Z,97225.15
2022-10-23T03:55:50.504Z,97225.95
2022-10-23T03:58:17.249Z,97220.85
2022-10-23T04:03:15.419Z,97221.56
2022-10-23T04:05:42.534Z,97220.48
2022-10-23T04:08:09.705Z,97221.61
2022-10-23T04:10:36.319Z,97228.88
2022-10-23T04:13:03.052Z,97233.16
2022-10-23T04:15:32.864Z,97228.61
2022-10-23T04:18:01.337Z,97228.13
2022-10-23T04:20:28.142Z,97229.53
2022-10-23T04:22:54.820Z,97239.36
2022-10-23T04:25:21.497Z,97238.89
2022-10-23T04:27:48.412Z,97239.58
2022-10-23T04:30:15.049Z,97239.63
2022-10-23T04:32:42.257Z,97239.60
2022-10-23T04:35:08.858Z,97236.11
2022-10-23T04:37:35.540Z,97239.48
2022-10-23T04:40:04.401Z,97236.98
2022-10-23T04:42:35.182Z,97237.03
2022-10-23T04:45:02.668Z,97240.60
2022-10-23T04:47:30.699Z,97247.39
2022-10-23T04:49:58.806Z,97242.41
2022-10-23T04:52:44.555Z,97247.24
2022-10-23T04:55:29.971Z,97260.20
2022-10-23T04:58:12.616Z,97258.71
2022-10-23T05:00:39.309Z,97260.02
2022-10-23T05:03:06.274Z,97262.69
2022-10-23T05:05:39.382Z,97263.21
2022-10-23T05:08:35.409Z,97270.50
2022-10-23T05:11:20.537Z,97265.07
2022-10-23T05:13:49.018Z,97270.04
2022-10-23T05:16:38.907Z,97276.44
2022-10-23T05:19:07.230Z,97276.34
2022-10-23T05:21:35.476Z,97287.29
2022-10-23T05:24:05.062Z,97280.04
2022-10-23T05:26:31.865Z,97292.80
2022-10-23T05:29:03.217Z,97298.85
2022-10-23T05:31:30.578Z,97302.61
2022-10-23T05:34:04.782Z,97305.48
2022-10-23T05:36:31.670Z,97312.08
2022-10-23T05:38:58.669Z,97314.30
2022-10-23T05:41:25.858Z,97315.17
2022-10-23T05:43:55.821Z,97315.63
2022-10-23T05:46:42.613Z,97317.71
2022-10-23T05:49:25.506Z,97321.80
2022-10-23T05:52:14.721Z,97325.27
2022-10-23T05:55:01.556Z,97329.49
2022-10-23T05:57:53.044Z,97335.98
2022-10-23T06:00:30.774Z,97333.39
2022-10-23T06:03:08.553Z,97334.02
2022-10-23T06:05:37.420Z,97341.52
2022-10-23T06:08:17.901Z,97341.55
2022-10-23T06:10:44.388Z,97346.76
2022-10-23T06:13:11.273Z,97348.00
2022-10-23T06:15:39.049Z,97351.48
2022-10-23T06:18:10.298Z,97352.48
2022-10-23T06:20:43.783Z,97355.36
2022-10-23T06:23:16.403Z,97358.35
2022-10-23T06:26:17.339Z,97363.35
2022-10-23T06:28:55.278Z,97367.35
2022-10-23T06:31:26.176Z,97373.61
2022-10-23T06:33:53.750Z,97374.64
2022-10-23T06:36:20.690Z,97376.55
2022-10-23T06:38:48.906Z,97379.84
2022-10-23T06:41:17.343Z,97381.70
2022-10-23T06:43:49.049Z,97378.96
2022-10-23T06:46:22.018Z,97380.48
2022-10-23T06:49:07.089Z,97384.23
2022-10-23T06:51:41.103Z,97389.60
2022-10-23T06:54:11.497Z,97390.06
2022-10-23T06:56:51.041Z,97393.05
2022-10-23T06:59:24.889Z,97395.59
2022-10-23T07:01:52.389Z,97395.18
2022-10-23T07:04:19.311Z,97399.11
2022-10-23T07:06:45.978Z,97397.98
2022-10-23T07:09:12.676Z,97398.39
2022-10-23T07:11:54.290Z,97403.23
2022-10-23T07:14:26.871Z,97403.90
2022-10-23T07:16:54.686Z,97411.59
2022-10-23T07:19:21.443Z,97417.98
2022-10-23T07:21:54.847Z,97416.91
2022-10-23T07:24:28.375Z,97414.10
2022-10-23T07:26:57.950Z,97413.14
2022-10-23T07:29:27.782Z,97410.52
2022-10-23T07:31:54.552Z,97413.04
2022-10-23T07:34:25.729Z,97406.85
2022-10-23T07:37:08.185Z,97408.02
2022-10-23T07:39:35.250Z,97407.20
2022-10-23T07:42:02.390Z,97412.62
2022-10-23T07:44:29.052Z,97410.14
2022-10-23T07:46:55.707Z,97411.14
2022-10-23T07:49:22.243Z,97416.00
2022-10-23T07:51:51.355Z,97426.38
2022-10-23T07:54:19.053Z,97424.83
2022-10-23T07:56:45.671Z,97424.88
2022-10-23T07:59:17.506Z,97427.66
2022-10-23T08:01:56.427Z,97448.27
2022-10-23T08:04:27.639Z,97429.23
2022-10-23T08:07:00.461Z,97440.00
2022-10-23T08:09:28.344Z,97445.56
2022-10-23T08:11:56.084Z,97435.27
2022-10-23T08:14:23.535Z,97436.52
2022-10-23T08:16:50.269Z,97437.86
2022-10-23T08:19:17.186Z,97440.98
2022-10-23T08:21:44.941Z,97447.91
2022-10-23T08:24:13.344Z,97452.25
2022-10-23T08:26:40.728Z,97444.23
2022-10-23T08:29:07.785Z,97442.90
2022-10-23T08:31:34.726Z,97451.98
2022-10-23T08:34:18.205Z,97452.16
2022-10-23T08:36:46.023Z,97462.66
2022-10-23T08:39:13.348Z,97460.54
2022-10-23T08:41:48.694Z,97458.98
2022-10-23T08:44:21.504Z,97459.61
2022-10-23T08:46:54.072Z,97459.44
2022-10-23T08:49:46.917Z,97457.23
2022-10-23T08:52:26.076Z,97458.02
2022-10-23T08:54:57.293Z,97456.68
2022-10-23T08:57:25.873Z,97455.05
2022-10-23T08:59:57.510Z,97455.88
2022-10-23T09:02:27.242Z,97454.80
2022-10-23T09:04:55.017Z,97460.82
2022-10-23T09:07:33.533Z,97462.94
2022-10-23T09:10:14.698Z,97469.86
2022-10-23T09:12:41.512Z,97472.63
2022-10-23T09:15:27.932Z,97465.23
2022-10-23T09:17:59.859Z,97468.34
2022-10-23T09:20:35.337Z,97472.31
2022-10-23T09:23:22.269Z,97470.21
2022-10-23T09:25:54.723Z,97474.86
2022-10-23T09:28:22.634Z,97475.29
2022-10-23T09:30:49.856Z,97473.67
2022-10-23T09:33:18.250Z,97467.63
2022-10-23T09:36:01.433Z,97458.09
2022-10-23T09:38:33.964Z,97464.96
2022-10-23T09:41:10.994Z,97468.34
2022-10-23T09:43:38.204Z,97472.11
2022-10-23T09:46:07.533Z,97469.04
2022-10-23T09:48:36.110Z,97463.60
2022-10-23T09:51:23.326Z,97460.03
2022-10-23T09:53:59.935Z,97461.98
2022-10-23T09:56:30.786Z,97458.78
2022-10-23T09:59:09.034Z,97462.30
2022-10-23T10:01:45.083Z,97462.09
2022-10-23T10:04:36.355Z,97459.02
2022-10-23T10:07:06.796Z,97459.53
2022-10-23T10:09:33.930Z,97461.55
2022-10-23T10:12:23.594Z,97459.41
2022-10-23T10:15:12.756Z,97463.39
2022-10-23T10:17:58.320Z,97456.47
2022-10-23T10:20:34.095Z,97447.80
2022-10-23T10:23:07.106Z,97446.86
2022-10-23T10:25:33.664Z,97446.60
2022-10-23T10:28:03.302Z,97440.92
2022-10-23T10:30:36.571Z,97441.40
2022-10-23T10:33:03.412Z,97448.83
2022-10-23T10:35:39.100Z,97457.66
2022-10-23T10:38:08.737Z,97458.27
2022-10-23T10:40:38.064Z,97458.56
2022-10-23T10:43:23.907Z,97454.60
2022-10-23T10:45:53.708Z,97451.98
2022-10-23T10:48:20.293Z,97451.58
2022-10-23T10:51:07.706Z,97454.43
2022-10-23T10:53:54.128Z,97456.73
2022-10-23T10:56:23.497Z,97455.30
2022-10-23T10:58:52.523Z,97451.52
2022-10-23T11:01:28.683Z,97444.52
2022-10-23T11:04:04.310Z,97446.15
2022-10-23T11:06:34.481Z,97450.08
2022-10-23T11:09:19.850Z,97457.94
2022-10-23T11:11:48.759Z,97457.53
2022-10-23T11:14:21.935Z,97456.52
2022-10-23T11:17:08.325Z,97448.27
2022-10-23T11:19:43.456Z,97453.27
2022-10-23T11:22:31.396Z,97449.29
2022-10-23T11:25:13.738Z,97448.40
2022-10-23T11:28:03.342Z,97453.70
2022-10-23T11:30:47.773Z,97454.64
2022-10-23T11:33:33.208Z,97457.86
2022-10-23T11:36:13.617Z,97445.80
2022-10-23T11:38:41.432Z,97445.41
2022-10-23T11:41:19.830Z,97447.89
2022-10-23T11:43:56.907Z,97446.16
2022-10-23T11:46:26.488Z,97441.90
2022-10-23T11:48:54.350Z,97438.48
2022-10-23T11:51:34.485Z,97441.09
2022-10-23T11:54:16.470Z,97442.17
2022-10-23T11:56:52.231Z,97437.64
2022-10-23T11:59:25.513Z,97437.38
2022-10-23T12:01:52.608Z,97437.16
2022-10-23T12:04:25.044Z,97439.16
2022-10-23T12:06:59.921Z,97444.44
2022-10-23T12:09:29.325Z,97447.65
2022-10-23T12:12:08.067Z,97450.61
2022-10-23T12:14:39.243Z,97449.80
2022-10-23T12:17:22.169Z,97454.15
2022-10-23T12:19:54.675Z,97448.55
2022-10-23T12:22:25.326Z,97439.73
2022-10-23T12:24:56.827Z,97440.13
2022-10-23T12:27:35.677Z,97443.75
2022-10-23T12:30:02.206Z,97440.14
2022-10-23T12:32:38.452Z,97444.75
2022-10-23T12:35:20.519Z,97446.01
2022-10-23T12:38:00.514Z,97440.00
2022-10-23T12:40:29.739Z,97439.29
2022-10-23T12:42:58.762Z,97439.67
2022-10-23T12:45:32.020Z,97441.41
2022-10-23T12:47:59.706Z,97442.73
2022-10-23T12:50:27.739Z,97450.42
2022-10-23T12:53:00.531Z,97453.73
2022-10-23T12:55:33.529Z,97446.73
2022-10-23T12:58:04.279Z,97447.73
2022-10-23T13:00:31.190Z,97446.27
2022-10-23T13:03:00.089Z,97449.75
2022-10-23T13:05:27.639Z,97448.04
2022-10-23T13:07:57.371Z,97451.34
2022-10-23T13:10:34.245Z,97451.64
2022-10-23T13:13:05.526Z,97449.73
2022-10-23T13:15:39.585Z,97449.27
2022-10-23T13:18:06.723Z,97448.14
2022-10-23T13:20:34.729Z,97441.91
2022-10-23T13:23:09.153Z,97441.81
2022-10-23T13:25:40.178Z,97445.36
2022-10-23T13:28:25.556Z,97447.72
2022-10-23T13:31:03.342Z,97446.59
2022-10-23T13:33:41.375Z,97450.48
2022-10-23T13:36:08.417Z,97454.35
2022-10-23T13:38:36.051Z,97457.09
2022-10-23T13:41:04.481Z,97456.26
2022-10-23T13:43:32.412Z,97461.62
2022-10-23T13:46:00.446Z,97458.98
2022-10-23T13:48:27.172Z,97460.69
2022-10-23T13:50:53.957Z,97456.74
2022-10-23T13:53:21.658Z,97456.23
2022-10-23T13:55:52.532Z,97454.95
2022-10-23T13:58:21.494Z,97459.08
2022-10-23T14:00:49.169Z,97455.77
2022-10-23T14:03:16.701Z,97456.98
2022-10-23T14:05:43.504Z,97457.20
2022-10-23T14:08:10.267Z,97461.45
2022-10-23T14:10:37.398Z,97460.30
2022-10-23T14:13:04.123Z,97459.09
2022-10-23T14:15:30.687Z,97454.02
2022-10-23T14:17:59.472Z,97452.81
2022-10-23T14:20:28.238Z,97453.58
2022-10-23T14:22:54.814Z,97451.92
2022-10-23T14:25:23.661Z,97452.45
2022-10-23T14:27:50.365Z,97455.90
2022-10-23T14:30:16.959Z,97456.10
2022-10-23T14:32:44.713Z,97459.41
2022-10-23T14:35:12.569Z,97457.67
2022-10-23T14:37:39.131Z,97455.39
2022-10-23T14:40:06.037Z,97454.54
2022-10-23T14:42:33.977Z,97450.62
2022-10-23T14:45:01.828Z,97449.41
2022-10-23T14:47:29.154Z,97443.78
2022-10-23T14:49:56.135Z,97441.98
2022-10-23T14:52:22.991Z,97440.52
2022-10-23T14:54:53.197Z,97435.92
2022-10-23T14:57:21.373Z,97438.59
2022-10-23T14:59:48.585Z,97439.47
2022-10-23T15:02:16.090Z,97436.30
2022-10-23T15:04:42.742Z,97438.04
2022-10-23T15:07:09.366Z,97440.39
2022-10-23T15:09:36.102Z,97437.13
2022-10-23T15:12:03.650Z,97442.36
2022-10-23T15:14:30.912Z,97441.05
2022-10-23T15:16:57.452Z,97436.85
2022-10-23T15:19:25.104Z,97436.23
2022-10-23T15:21:51.975Z,97435.04
2022-10-23T15:24:20.326Z,97441.16
2022-10-23T15:26:47.922Z,97443.47
2022-10-23T15:29:15.269Z,97445.35
2022-10-23T15:31:43.456Z,97447.58
2022-10-23T15:34:12.415Z,97445.60
2022-10-23T15:36:39.093Z,97446.27
2022-10-23T15:39:08.006Z,97454.20
2022-10-23T15:41:37.144Z,97452.96
2022-10-23T15:44:05.059Z,97456.31
2022-10-23T15:46:32.285Z,97460.20
2022-10-23T15:48:58.996Z,97465.98
2022-10-23T15:51:25.640Z,97471.98
2022-10-23T15:53:52.273Z,97474.77
2022-10-23T15:56:18.812Z,97478.19
2022-10-23T15:58:45.667Z,97487.52
2022-10-23T16:01:12.298Z,97491.25
2022-10-23T16:03:39.144Z,97495.77
2022-10-23T16:06:07.052Z,97498.69
2022-10-23T16:08:33.805Z,97498.47
2022-10-23T16:11:00.535Z,97503.89
2022-10-23T16:13:27.331Z,97500.51
2022-10-23T16:15:54.425Z,97499.46
2022-10-23T16:18:21.672Z,97503.91
2022-10-23T16:20:50.474Z,97503.12
2022-10-23T16:23:17.234Z,97498.41
2022-10-23T16:25:45.931Z,97500.41
2022-10-23T16:28:12.949Z,97501.42
2022-10-23T16:30:40.598Z,97499.21
2022-10-23T16:33:07.454Z,97493.90
2022-10-23T16:35:34.141Z,97496.36
2022-10-23T16:38:05.994Z,97500.69
2022-10-23T16:40:32.456Z,97508.86
2022-10-23T16:43:17.860Z,97517.31
2022-10-23T16:46:19.844Z,97515.45
2022-10-23T16:48:47.206Z,97522.23
2022-10-23T16:51:15.218Z,97523.81
2022-10-23T16:53:42.393Z,97528.78
2022-10-23T16:56:12.757Z,97540.31
2022-10-23T16:58:46.071Z,97543.77
2022-10-23T17:01:45.065Z,97548.95
2022-10-23T17:04:13.420Z,97552.02
2022-10-23T17:06:46.038Z,97549.88
2022-10-23T17:12:06.619Z,97551.09
2022-10-23T17:14:55.665Z,97550.05
2022-10-23T17:17:28.361Z,97552.72
2022-10-23T17:19:57.666Z,97556.64
2022-10-23T17:22:30.485Z,97565.73
2022-10-23T17:24:57.957Z,97569.98
2022-10-23T17:27:29.720Z,97563.67
2022-10-23T17:29:57.683Z,97564.25
2022-10-23T17:32:24.529Z,97561.64
2022-10-23T17:35:10.705Z,97559.92
2022-10-23T17:38:01.130Z,97553.38
2022-10-23T17:40:34.876Z,97553.58
2022-10-23T17:43:14.221Z,97547.31
2022-10-23T17:45:51.373Z,97548.61
2022-10-23T17:48:47.434Z,97545.06
2022-10-23T17:51:18.200Z,97541.15
2022-10-23T17:53:59.347Z,97538.30
2022-10-23T17:56:28.559Z,97536.66
2022-10-23T17:59:03.260Z,97536.75
2022-10-23T18:01:48.051Z,97542.31
2022-10-23T18:04:25.513Z,97546.55
2022-10-23T18:07:01.942Z,97543.30
2022-10-23T18:09:37.186Z,97550.25
2022-10-23T18:12:11.053Z,97541.73
2022-10-23T18:14:40.696Z,97540.80
2022-10-23T18:17:12.146Z,97535.81
2022-10-23T18:20:01.691Z,97535.29
2022-10-23T18:22:55.582Z,97534.98
2022-10-23T18:25:26.181Z,97533.47
2022-10-23T18:27:54.277Z,97528.13
2022-10-23T18:30:29.675Z,97527.60
2022-10-23T18:32:57.626Z,97525.79
2022-10-23T18:35:34.279Z,97522.45
2022-10-23T18:38:03.391Z,97523.75
2022-10-23T18:40:34.079Z,97526.33
2022-10-23T18:43:00.637Z,97527.02
2022-10-23T18:45:28.434Z,97520.02
2022-10-23T18:47:59.417Z,97515.79
2022-10-23T18:50:29.271Z,97516.55
2022-10-23T18:55:54.110Z,97516.11
2022-10-23T18:58:38.141Z,97515.55
2022-10-23T19:01:42.550Z,97511.27
2022-10-23T19:04:12.065Z,97512.30
2022-10-23T19:06:44.306Z,97515.08
2022-10-23T19:09:25.206Z,97518.57
2022-10-23T19:12:28.711Z,97518.10
2022-10-23T19:15:01.927Z,97517.52
2022-10-23T19:17:40.125Z,97515.96
2022-10-23T19:20:11.712Z,97514.86
2022-10-23T19:22:42.480Z,97510.98
2022-10-23T19:25:14.813Z,97501.25
2022-10-23T19:27:50.640Z,97497.47
2022-10-23T19:30:25.061Z,97497.03
2022-10-23T19:32:54.394Z,97491.71
2022-10-23T19:35:25.349Z,97493.70
2022-10-23T19:38:04.434Z,97498.05
2022-10-23T19:40:35.364Z,97496.42
2022-10-23T19:43:04.606Z,97496.86
2022-10-23T19:45:40.838Z,97500.40
2022-10-23T19:48:14.215Z,97507.41
2022-10-23T19:51:01.722Z,97507.56
2022-10-23T19:53:31.604Z,97515.75
2022-10-23T19:56:05.529Z,97518.42
2022-10-23T19:58:39.593Z,97514.67
2022-10-23T20:01:17.198Z,97515.53
2022-10-23T20:03:50.701Z,97511.96
2022-10-23T20:06:19.109Z,97509.61
2022-10-23T20:09:00.986Z,97507.98
2022-10-23T20:11:29.259Z,97508.19
2022-10-23T20:14:08.116Z,97507.88
2022-10-23T20:17:07.089Z,97504.98
2022-10-23T20:19:31.170Z,97501.41
2022-10-23T20:22:07.508Z,97502.55
2022-10-23T20:24:36.908Z,97500.80
2022-10-23T20:27:06.115Z,97506.40
2022-10-23T20:29:43.684Z,97505.87
2022-10-23T20:32:18.470Z,97502.21
2022-10-23T20:35:00.097Z,97500.05
2022-10-23T20:37:26.776Z,97509.77
2022-10-23T20:39:56.737Z,97519.23
2022-10-23T20:42:25.261Z,97517.39
2022-10-23T20:44:58.069Z,97515.13
2022-10-23T20:47:27.798Z,97506.77
2022-10-23T20:50:00.086Z,97504.48
2022-10-23T20:52:30.137Z,97500.04
2022-10-23T20:54:59.232Z,97502.70
2022-10-23T20:57:31.196Z,97499.95
2022-10-23T21:00:09.722Z,97506.95
2022-10-23T21:02:38.578Z,97505.18
2022-10-23T21:05:11.799Z,97507.05
2022-10-23T21:07:41.980Z,97509.64
2022-10-23T21:10:14.021Z,97503.44
2022-10-23T21:12:42.249Z,97501.46
2022-10-23T21:15:15.142Z,97497.65
2022-10-23T21:17:42.250Z,97500.52
2022-10-23T21:20:09.537Z,97499.68
2022-10-23T21:22:38.947Z,97496.14
2022-10-23T21:25:09.743Z,97492.71
2022-10-23T21:27:39.646Z,97482.46
2022-10-23T21:30:11.620Z,97478.11
2022-10-23T21:32:40.048Z,97478.52
2022-10-23T21:35:09.569Z,97474.55
2022-10-23T21:37:36.150Z,97469.69
2022-10-23T21:40:04.066Z,97465.27
2022-10-23T21:42:39.892Z,97458.94
2022-10-23T21:45:10.352Z,97457.35
2022-10-23T21:47:46.048Z,97457.17
2022-10-23T21:50:31.012Z,97457.27
2022-10-23T21:52:59.926Z,97463.75
2022-10-23T21:55:33.257Z,97464.14
2022-10-23T21:58:09.928Z,97467.62
2022-10-23T22:00:52.192Z,97466.13
2022-10-23T22:03:19.274Z,97474.66
2022-10-23T22:05:53.070Z,97479.17
2022-10-23T22:08:19.629Z,97476.95
2022-10-23T22:10:47.192Z,97468.36
2022-10-23T22:13:20.829Z,97460.85
2022-10-23T22:15:47.323Z,97463.42
2022-10-23T22:18:14.247Z,97460.33
2022-10-23T22:20:46.790Z,97462.34
2022-10-23T22:23:13.415Z,97465.00
2022-10-23T22:25:40.230Z,97469.89
2022-10-23T22:28:10.069Z,97473.81
2022-10-23T22:30:39.862Z,97485.36
2022-10-23T22:33:06.509Z,97489.73
2022-10-23T22:35:35.992Z,97485.89
2022-10-23T22:38:07.501Z,97484.86
2022-10-23T22:40:45.649Z,97485.30
2022-10-23T22:43:30.379Z,97493.85
2022-10-23T22:46:08.543Z,97503.42
2022-10-23T22:48:38.782Z,97493.89
2022-10-23T22:51:25.570Z,97480.14
2022-10-23T22:54:07.213Z,97471.79
2022-10-23T22:56:43.269Z,97474.50
2022-10-23T22:59:12.753Z,97479.50
2022-10-23T23:01:50.157Z,97478.54
2022-10-23T23:04:37.187Z,97477.73
2022-10-23T23:07:06.735Z,97476.33
2022-10-23T23:09:40.062Z,97479.83
2022-10-23T23:12:14.383Z,97478.79
2022-10-23T23:14:42.935Z,97481.30
2022-10-23T23:17:11.938Z,97476.98
2022-10-23T23:19:38.685Z,97477.27
2022-10-23T23:22:11.105Z,97484.58
2022-10-23T23:24:38.425Z,97475.08
2022-10-23T23:27:05.347Z,97475.30
2022-10-23T23:29:39.207Z,97470.08
2022-10-23T23:32:15.108Z,97467.88
2022-10-23T23:34:48.597Z,97470.30
2022-10-23T23:37:22.402Z,97469.48
2022-10-23T23:39:50.894Z,97477.05
2022-10-23T23:42:26.455Z,97471.27
2022-10-23T23:45:02.712Z,97465.94
2022-10-23T23:47:37.590Z,97462.64
2022-10-23T23:50:08.410Z,97465.00
2022-10-23T23:52:42.713Z,97464.00
2022-10-23T23:55:09.373Z,97466.67
2022-10-23T23:57:36.198Z,97462.25
